Aviation Digital Data Service (ADDS)

Output produced by METARs form (2226 UTC 02 August 2015)
found at http://aviationweather.gov/adds/metars/
 
KBVI 021720Z 0218/0318 23008G16KT P6SM BKN045 
     FM030300 21005KT P6SM SCT250 
     FM031500 23010KT P6SM VCSH BKN050